sensor_id;sensor_type;location;lat;lon;timestamp;temperature;humidity
1021;DHT22;499;42.648;23.270;2023-05-10T00:02:09;8.40;99.90
1021;DHT22;499;42.648;23.270;2023-05-10T00:04:36;8.40;99.90
1021;DHT22;499;42.648;23.270;2023-05-10T00:07:04;8.40;99.90
1021;DHT22;499;42.648;23.270;2023-05-10T00:09:32;8.40;99.90
1021;DHT22;499;42.648;23.270;2023-05-10T00:11:59;8.40;99.90
1021;DHT22;499;42.648;23.270;2023-05-10T00:14:26;8.30;99.90
1021;DHT22;499;42.648;23.270;2023-05-10T00:16:53;8.40;99.90
1021;DHT22;499;42.648;23.270;2023-05-10T00:19:20;8.40;99.90
1021;DHT22;499;42.648;23.270;2023-05-10T00:21:47;8.40;99.90
1021;DHT22;499;42.648;23.270;2023-05-10T00:24:15;8.20;99.90
1021;DHT22;499;42.648;23.270;2023-05-10T00:26:42;8.30;99.90
1021;DHT22;499;42.648;23.270;2023-05-10T00:29:09;8.30;99.90
1021;DHT22;499;42.648;23.270;2023-05-10T00:31:36;8.30;99.90
1021;DHT22;499;42.648;23.270;2023-05-10T00:34:03;8.30;99.90
1021;DHT22;499;42.648;23.270;2023-05-10T00:36:30;8.20;99.90
1021;DHT22;499;42.648;23.270;2023-05-10T00:38:57;8.10;99.90
1021;DHT22;499;42.648;23.270;2023-05-10T00:41:26;8.10;99.90
1021;DHT22;499;42.648;23.270;2023-05-10T00:43:53;8.10;99.90
1021;DHT22;499;42.648;23.270;2023-05-10T00:46:20;8.10;99.90
1021;DHT22;499;42.648;23.270;2023-05-10T00:48:47;8.10;99.90
1021;DHT22;499;42.648;23.270;2023-05-10T00:51:14;8.10;99.90
1021;DHT22;499;42.648;23.270;2023-05-10T00:53:42;8.10;99.90
1021;DHT22;499;42.648;23.270;2023-05-10T00:56:09;8.10;99.90
1021;DHT22;499;42.648;23.270;2023-05-10T00:58:38;8.10;99.90
1021;DHT22;499;42.648;23.270;2023-05-10T01:01:06;8.10;99.90
1021;DHT22;499;42.648;23.270;2023-05-10T01:03:33;8.10;99.90
1021;DHT22;499;42.648;23.270;2023-05-10T01:06:00;8.20;99.90
1021;DHT22;499;42.648;23.270;2023-05-10T01:08:28;8.20;99.90
1021;DHT22;499;42.648;23.270;2023-05-10T01:10:55;8.20;99.90
1021;DHT22;499;42.648;23.270;2023-05-10T01:13:31;8.30;99.90
1021;DHT22;499;42.648;23.270;2023-05-10T01:16:00;8.40;99.90
1021;DHT22;499;42.648;23.270;2023-05-10T01:18:29;8.30;99.90
1021;DHT22;499;42.648;23.270;2023-05-10T01:21:04;8.30;99.90
1021;DHT22;499;42.648;23.270;2023-05-10T01:24:03;8.40;99.90
1021;DHT22;499;42.648;23.270;2023-05-10T01:27:02;8.40;99.90
1021;DHT22;499;42.648;23.270;2023-05-10T01:29:53;8.30;99.90
1021;DHT22;499;42.648;23.270;2023-05-10T01:32:32;8.30;99.90
1021;DHT22;499;42.648;23.270;2023-05-10T01:35:07;8.30;99.90
1021;DHT22;499;42.648;23.270;2023-05-10T01:37:42;8.30;99.90
1021;DHT22;499;42.648;23.270;2023-05-10T01:40:17;8.30;99.90
1021;DHT22;499;42.648;23.270;2023-05-10T01:42:49;8.30;99.90
1021;DHT22;499;42.648;23.270;2023-05-10T01:45:22;8.30;99.90
1021;DHT22;499;42.648;23.270;2023-05-10T01:47:58;8.30;99.90
1021;DHT22;499;42.648;23.270;2023-05-10T01:50:30;8.30;99.90
1021;DHT22;499;42.648;23.270;2023-05-10T01:52:59;8.40;99.90
1021;DHT22;499;42.648;23.270;2023-05-10T01:55:29;8.40;99.90
1021;DHT22;499;42.648;23.270;2023-05-10T01:58:02;8.30;99.90
1021;DHT22;499;42.648;23.270;2023-05-10T02:00:30;8.40;99.90
1021;DHT22;499;42.648;23.270;2023-05-10T02:03:01;8.30;99.90
1021;DHT22;499;42.648;23.270;2023-05-10T02:05:32;8.20;99.90
1021;DHT22;499;42.648;23.270;2023-05-10T02:08:00;8.30;99.90
1021;DHT22;499;42.648;23.270;2023-05-10T02:10:28;8.30;99.90
1021;DHT22;499;42.648;23.270;2023-05-10T02:12:58;8.30;99.90
1021;DHT22;499;42.648;23.270;2023-05-10T02:15:26;8.40;99.90
1021;DHT22;499;42.648;23.270;2023-05-10T02:17:55;8.40;99.90
1021;DHT22;499;42.648;23.270;2023-05-10T02:20:24;8.30;99.90
1021;DHT22;499;42.648;23.270;2023-05-10T02:22:54;8.30;99.90
1021;DHT22;499;42.648;23.270;2023-05-10T02:25:23;8.30;99.90
1021;DHT22;499;42.648;23.270;2023-05-10T02:27:53;8.20;99.90
1021;DHT22;499;42.648;23.270;2023-05-10T02:30:21;8.10;99.90
1021;DHT22;499;42.648;23.270;2023-05-10T02:32:49;8.10;99.90
1021;DHT22;499;42.648;23.270;2023-05-10T02:35:17;8.20;99.90
1021;DHT22;499;42.648;23.270;2023-05-10T02:37:45;8.10;99.90
1021;DHT22;499;42.648;23.270;2023-05-10T02:40:15;8.00;99.90
1021;DHT22;499;42.648;23.270;2023-05-10T02:42:44;7.90;99.90
1021;DHT22;499;42.648;23.270;2023-05-10T02:45:15;7.80;99.90
1021;DHT22;499;42.648;23.270;2023-05-10T02:47:43;7.70;99.90
1021;DHT22;499;42.648;23.270;2023-05-10T02:50:10;7.70;99.90
1021;DHT22;499;42.648;23.270;2023-05-10T02:52:40;7.60;98.10
1021;DHT22;499;42.648;23.270;2023-05-10T02:55:12;7.50;99.40
1021;DHT22;499;42.648;23.270;2023-05-10T02:57:44;7.50;98.50
1021;DHT22;499;42.648;23.270;2023-05-10T03:00:13;7.40;97.70
1021;DHT22;499;42.648;23.270;2023-05-10T03:02:40;7.40;98.00
1021;DHT22;499;42.648;23.270;2023-05-10T03:05:08;7.30;96.90
1021;DHT22;499;42.648;23.270;2023-05-10T03:07:35;7.30;95.60
1021;DHT22;499;42.648;23.270;2023-05-10T03:10:03;7.30;96.00
1021;DHT22;499;42.648;23.270;2023-05-10T03:12:42;7.30;96.60
1021;DHT22;499;42.648;23.270;2023-05-10T03:15:19;7.30;96.00
1021;DHT22;499;42.648;23.270;2023-05-10T03:17:54;7.30;96.00
1021;DHT22;499;42.648;23.270;2023-05-10T03:20:25;7.30;96.00
1021;DHT22;499;42.648;23.270;2023-05-10T03:23:02;7.30;95.60
1021;DHT22;499;42.648;23.270;2023-05-10T03:25:31;7.20;94.20
1021;DHT22;499;42.648;23.270;2023-05-10T03:28:01;7.30;92.00
1021;DHT22;499;42.648;23.270;2023-05-10T03:30:28;7.20;92.80
1021;DHT22;499;42.648;23.270;2023-05-10T03:32:56;7.30;93.40
1021;DHT22;499;42.648;23.270;2023-05-10T03:35:23;7.10;93.70
1021;DHT22;499;42.648;23.270;2023-05-10T03:37:50;7.10;94.70
1021;DHT22;499;42.648;23.270;2023-05-10T03:40:17;7.10;95.90
1021;DHT22;499;42.648;23.270;2023-05-10T03:42:44;7.00;96.30
1021;DHT22;499;42.648;23.270;2023-05-10T03:45:13;7.10;97.20
1021;DHT22;499;42.648;23.270;2023-05-10T03:47:40;7.10;96.20
1021;DHT22;499;42.648;23.270;2023-05-10T03:50:08;7.10;97.50
1021;DHT22;499;42.648;23.270;2023-05-10T03:52:35;7.20;98.80
1021;DHT22;499;42.648;23.270;2023-05-10T03:55:05;7.30;96.80
1021;DHT22;499;42.648;23.270;2023-05-10T03:57:33;7.30;96.30
1021;DHT22;499;42.648;23.270;2023-05-10T04:00:00;7.40;95.30
1021;DHT22;499;42.648;23.270;2023-05-10T04:02:29;7.30;94.70
1021;DHT22;499;42.648;23.270;2023-05-10T04:04:56;7.30;93.20
1021;DHT22;499;42.648;23.270;2023-05-10T04:07:23;7.20;92.00
1021;DHT22;499;42.648;23.270;2023-05-10T04:09:50;7.20;91.80
1021;DHT22;499;42.648;23.270;2023-05-10T04:12:17;7.20;92.50
1021;DHT22;499;42.648;23.270;2023-05-10T04:14:44;7.10;92.90
1021;DHT22;499;42.648;23.270;2023-05-10T04:17:11;7.10;93.90
1021;DHT22;499;42.648;23.270;2023-05-10T04:19:40;7.10;94.10
1021;DHT22;499;42.648;23.270;2023-05-10T04:22:07;7.10;95.00
1021;DHT22;499;42.648;23.270;2023-05-10T04:24:34;7.20;96.00
1021;DHT22;499;42.648;23.270;2023-05-10T04:27:01;7.30;94.00
1021;DHT22;499;42.648;23.270;2023-05-10T04:29:28;7.20;92.00
1021;DHT22;499;42.648;23.270;2023-05-10T04:31:55;7.30;92.90
1021;DHT22;499;42.648;23.270;2023-05-10T04:34:22;7.30;92.00
1021;DHT22;499;42.648;23.270;2023-05-10T04:36:50;7.30;93.10
1021;DHT22;499;42.648;23.270;2023-05-10T04:39:17;7.20;89.10
1021;DHT22;499;42.648;23.270;2023-05-10T04:41:44;7.20;91.00
1021;DHT22;499;42.648;23.270;2023-05-10T04:44:11;7.20;92.00
1021;DHT22;499;42.648;23.270;2023-05-10T04:46:38;7.30;92.90
1021;DHT22;499;42.648;23.270;2023-05-10T04:49:05;7.40;92.80
1021;DHT22;499;42.648;23.270;2023-05-10T04:51:32;7.40;92.80
1021;DHT22;499;42.648;23.270;2023-05-10T04:54:00;7.50;91.40
1021;DHT22;499;42.648;23.270;2023-05-10T04:56:27;7.50;90.30
1021;DHT22;499;42.648;23.270;2023-05-10T04:58:54;7.60;89.70
1021;DHT22;499;42.648;23.270;2023-05-10T05:01:22;7.80;88.20
1021;DHT22;499;42.648;23.270;2023-05-10T05:03:49;8.00;88.80
1021;DHT22;499;42.648;23.270;2023-05-10T05:06:18;7.90;86.80
1021;DHT22;499;42.648;23.270;2023-05-10T05:08:46;8.10;84.70
1021;DHT22;499;42.648;23.270;2023-05-10T05:11:16;8.20;82.20
1021;DHT22;499;42.648;23.270;2023-05-10T05:13:43;8.30;82.20
1021;DHT22;499;42.648;23.270;2023-05-10T05:16:10;8.20;71.00
1021;DHT22;499;42.648;23.270;2023-05-10T05:18:37;7.40;74.20
1021;DHT22;499;42.648;23.270;2023-05-10T05:21:13;8.10;74.60
1021;DHT22;499;42.648;23.270;2023-05-10T05:23:41;8.10;72.60
1021;DHT22;499;42.648;23.270;2023-05-10T05:26:08;8.00;72.30
1021;DHT22;499;42.648;23.270;2023-05-10T05:28:37;8.00;78.10
1021;DHT22;499;42.648;23.270;2023-05-10T05:31:04;7.90;73.50
1021;DHT22;499;42.648;23.270;2023-05-10T05:33:33;8.00;77.10
1021;DHT22;499;42.648;23.270;2023-05-10T05:36:00;8.00;78.60
1021;DHT22;499;42.648;23.270;2023-05-10T05:38:27;7.90;77.50
1021;DHT22;499;42.648;23.270;2023-05-10T05:40:54;7.90;81.10
1021;DHT22;499;42.648;23.270;2023-05-10T05:43:21;7.80;71.80
1021;DHT22;499;42.648;23.270;2023-05-10T05:45:52;7.70;81.60
1021;DHT22;499;42.648;23.270;2023-05-10T05:48:19;7.80;86.00
1021;DHT22;499;42.648;23.270;2023-05-10T05:50:46;7.80;90.50
1021;DHT22;499;42.648;23.270;2023-05-10T05:53:13;7.60;82.10
1021;DHT22;499;42.648;23.270;2023-05-10T05:55:51;7.60;85.80
1021;DHT22;499;42.648;23.270;2023-05-10T05:58:18;7.60;86.50
1021;DHT22;499;42.648;23.270;2023-05-10T06:00:45;7.70;86.20
1021;DHT22;499;42.648;23.270;2023-05-10T06:03:13;7.70;88.70
1021;DHT22;499;42.648;23.270;2023-05-10T06:05:40;7.60;90.10
1021;DHT22;499;42.648;23.270;2023-05-10T06:08:07;7.70;91.40
1021;DHT22;499;42.648;23.270;2023-05-10T06:10:34;7.70;92.20
1021;DHT22;499;42.648;23.270;2023-05-10T06:13:01;7.80;92.20
1021;DHT22;499;42.648;23.270;2023-05-10T06:15:28;7.70;90.50
1021;DHT22;499;42.648;23.270;2023-05-10T06:17:55;7.90;92.80
1021;DHT22;499;42.648;23.270;2023-05-10T06:20:23;7.90;89.10
1021;DHT22;499;42.648;23.270;2023-05-10T06:22:50;7.80;87.70
1021;DHT22;499;42.648;23.270;2023-05-10T06:25:17;7.70;82.70
1021;DHT22;499;42.648;23.270;2023-05-10T06:27:44;7.70;84.10
1021;DHT22;499;42.648;23.270;2023-05-10T06:30:12;7.80;88.40
1021;DHT22;499;42.648;23.270;2023-05-10T06:32:41;7.90;82.50
1021;DHT22;499;42.648;23.270;2023-05-10T06:35:09;7.90;83.00
1021;DHT22;499;42.648;23.270;2023-05-10T06:37:38;7.90;82.20
1021;DHT22;499;42.648;23.270;2023-05-10T06:40:06;7.90;84.70
1021;DHT22;499;42.648;23.270;2023-05-10T06:42:33;7.90;82.50
1021;DHT22;499;42.648;23.270;2023-05-10T06:45:00;7.90;82.30
1021;DHT22;499;42.648;23.270;2023-05-10T06:47:28;7.90;76.90
1021;DHT22;499;42.648;23.270;2023-05-10T06:49:55;8.00;79.10
1021;DHT22;499;42.648;23.270;2023-05-10T06:52:22;8.00;79.70
1021;DHT22;499;42.648;23.270;2023-05-10T06:54:51;8.20;82.60
1021;DHT22;499;42.648;23.270;2023-05-10T06:57:18;8.10;74.30
1021;DHT22;499;42.648;23.270;2023-05-10T06:59:46;8.30;75.70
1021;DHT22;499;42.648;23.270;2023-05-10T07:02:13;8.10;67.90
1021;DHT22;499;42.648;23.270;2023-05-10T07:04:42;8.20;71.80
1021;DHT22;499;42.648;23.270;2023-05-10T07:07:09;8.10;68.20
1021;DHT22;499;42.648;23.270;2023-05-10T07:09:36;8.10;72.40
1021;DHT22;499;42.648;23.270;2023-05-10T07:12:05;8.20;71.40
1021;DHT22;499;42.648;23.270;2023-05-10T07:14:32;8.20;71.60
1021;DHT22;499;42.648;23.270;2023-05-10T07:16:59;8.00;66.60
1021;DHT22;499;42.648;23.270;2023-05-10T07:19:26;8.00;71.10
1021;DHT22;499;42.648;23.270;2023-05-10T07:21:55;8.00;71.40
1021;DHT22;499;42.648;23.270;2023-05-10T07:24:22;8.00;74.00
1021;DHT22;499;42.648;23.270;2023-05-10T07:26:50;8.00;72.00
1021;DHT22;499;42.648;23.270;2023-05-10T07:29:18;8.00;70.10
1021;DHT22;499;42.648;23.270;2023-05-10T07:31:45;8.00;70.50
1021;DHT22;499;42.648;23.270;2023-05-10T07:34:12;8.20;72.10
1021;DHT22;499;42.648;23.270;2023-05-10T07:36:39;8.00;67.40
1021;DHT22;499;42.648;23.270;2023-05-10T07:39:06;8.00;67.50
1021;DHT22;499;42.648;23.270;2023-05-10T07:41:33;8.20;69.60
1021;DHT22;499;42.648;23.270;2023-05-10T07:44:00;8.30;67.00
1021;DHT22;499;42.648;23.270;2023-05-10T07:46:28;8.10;68.20
1021;DHT22;499;42.648;23.270;2023-05-10T07:48:55;8.10;72.30
1021;DHT22;499;42.648;23.270;2023-05-10T07:51:22;8.20;75.20
1021;DHT22;499;42.648;23.270;2023-05-10T07:53:49;8.30;75.00
1021;DHT22;499;42.648;23.270;2023-05-10T07:56:21;8.30;72.80
1021;DHT22;499;42.648;23.270;2023-05-10T07:58:50;8.40;62.10
1021;DHT22;499;42.648;23.270;2023-05-10T08:01:17;8.40;62.10
1021;DHT22;499;42.648;23.270;2023-05-10T08:03:46;8.40;66.60
1021;DHT22;499;42.648;23.270;2023-05-10T08:06:13;8.50;63.00
1021;DHT22;499;42.648;23.270;2023-05-10T08:08:41;8.50;60.70
1021;DHT22;499;42.648;23.270;2023-05-10T08:11:08;8.40;63.00
1021;DHT22;499;42.648;23.270;2023-05-10T08:13:35;8.40;65.00
1021;DHT22;499;42.648;23.270;2023-05-10T08:16:02;8.50;59.40
1021;DHT22;499;42.648;23.270;2023-05-10T08:18:29;8.70;61.00
1021;DHT22;499;42.648;23.270;2023-05-10T08:20:57;8.60;57.80
1021;DHT22;499;42.648;23.270;2023-05-10T08:23:24;8.60;58.40
1021;DHT22;499;42.648;23.270;2023-05-10T08:25:51;8.70;60.80
1021;DHT22;499;42.648;23.270;2023-05-10T08:28:18;8.90;60.00
1021;DHT22;499;42.648;23.270;2023-05-10T08:30:45;8.90;63.40
1021;DHT22;499;42.648;23.270;2023-05-10T08:33:12;9.00;62.10
1021;DHT22;499;42.648;23.270;2023-05-10T08:35:39;9.00;64.60
1021;DHT22;499;42.648;23.270;2023-05-10T08:38:08;9.00;57.60
1021;DHT22;499;42.648;23.270;2023-05-10T08:40:37;9.00;58.80
1021;DHT22;499;42.648;23.270;2023-05-10T08:43:05;9.00;60.90
1021;DHT22;499;42.648;23.270;2023-05-10T08:45:35;8.90;62.90
1021;DHT22;499;42.648;23.270;2023-05-10T08:48:05;8.90;63.50
1021;DHT22;499;42.648;23.270;2023-05-10T08:50:34;8.90;58.70
1021;DHT22;499;42.648;23.270;2023-05-10T08:53:05;8.90;65.70
1021;DHT22;499;42.648;23.270;2023-05-10T08:55:34;9.00;66.20
1021;DHT22;499;42.648;23.270;2023-05-10T08:58:02;9.50;72.10
1021;DHT22;499;42.648;23.270;2023-05-10T09:00:30;9.70;63.80
1021;DHT22;499;42.648;23.270;2023-05-10T09:02:58;9.80;58.00
1021;DHT22;499;42.648;23.270;2023-05-10T09:05:25;9.70;53.50
1021;DHT22;499;42.648;23.270;2023-05-10T09:07:52;9.40;56.00
1021;DHT22;499;42.648;23.270;2023-05-10T09:10:20;9.30;60.60
1021;DHT22;499;42.648;23.270;2023-05-10T09:12:50;9.10;58.80
1021;DHT22;499;42.648;23.270;2023-05-10T09:15:17;9.20;60.60
1021;DHT22;499;42.648;23.270;2023-05-10T09:17:45;9.40;59.00
1021;DHT22;499;42.648;23.270;2023-05-10T09:20:13;9.70;62.40
1021;DHT22;499;42.648;23.270;2023-05-10T09:22:40;9.60;55.60
1021;DHT22;499;42.648;23.270;2023-05-10T09:25:09;9.80;57.40
1021;DHT22;499;42.648;23.270;2023-05-10T09:27:38;9.90;56.10
1021;DHT22;499;42.648;23.270;2023-05-10T09:30:07;9.80;55.40
1021;DHT22;499;42.648;23.270;2023-05-10T09:32:39;10.00;54.90
1021;DHT22;499;42.648;23.270;2023-05-10T09:35:07;10.00;50.30
1021;DHT22;499;42.648;23.270;2023-05-10T09:37:34;9.90;54.10
1021;DHT22;499;42.648;23.270;2023-05-10T09:40:05;9.90;54.00
1021;DHT22;499;42.648;23.270;2023-05-10T09:42:33;10.00;51.70
1021;DHT22;499;42.648;23.270;2023-05-10T09:45:02;10.00;52.80
1021;DHT22;499;42.648;23.270;2023-05-10T09:47:31;9.90;52.20
1021;DHT22;499;42.648;23.270;2023-05-10T09:49:59;9.90;51.10
1021;DHT22;499;42.648;23.270;2023-05-10T09:52:29;9.80;52.70
1021;DHT22;499;42.648;23.270;2023-05-10T09:54:56;9.60;54.00
1021;DHT22;499;42.648;23.270;2023-05-10T09:57:24;9.70;53.30
1021;DHT22;499;42.648;23.270;2023-05-10T09:59:52;9.80;51.50
1021;DHT22;499;42.648;23.270;2023-05-10T10:02:21;9.90;50.60
1021;DHT22;499;42.648;23.270;2023-05-10T10:04:56;9.80;50.50
1021;DHT22;499;42.648;23.270;2023-05-10T10:07:23;9.90;49.40
1021;DHT22;499;42.648;23.270;2023-05-10T10:09:52;9.90;46.00
1021;DHT22;499;42.648;23.270;2023-05-10T10:12:19;10.00;47.00
1021;DHT22;499;42.648;23.270;2023-05-10T10:14:46;10.00;46.60
1021;DHT22;499;42.648;23.270;2023-05-10T10:17:15;10.20;44.10
1021;DHT22;499;42.648;23.270;2023-05-10T10:19:42;10.30;45.40
1021;DHT22;499;42.648;23.270;2023-05-10T10:22:10;10.50;44.80
1021;DHT22;499;42.648;23.270;2023-05-10T10:24:38;10.40;41.30
1021;DHT22;499;42.648;23.270;2023-05-10T10:27:19;10.10;43.70
1021;DHT22;499;42.648;23.270;2023-05-10T10:29:57;10.20;43.70
1021;DHT22;499;42.648;23.270;2023-05-10T10:32:33;10.20;46.80
1021;DHT22;499;42.648;23.270;2023-05-10T10:35:04;10.40;45.50
1021;DHT22;499;42.648;23.270;2023-05-10T10:37:45;10.40;44.70
1021;DHT22;499;42.648;23.270;2023-05-10T10:40:26;10.40;44.70
1021;DHT22;499;42.648;23.270;2023-05-10T10:42:53;10.40;44.50
1021;DHT22;499;42.648;23.270;2023-05-10T10:45:21;10.40;44.00
1021;DHT22;499;42.648;23.270;2023-05-10T10:47:49;10.40;42.20
1021;DHT22;499;42.648;23.270;2023-05-10T10:50:20;10.30;40.70
1021;DHT22;499;42.648;23.270;2023-05-10T10:52:50;10.30;43.00
1021;DHT22;499;42.648;23.270;2023-05-10T10:55:19;10.40;44.80
1021;DHT22;499;42.648;23.270;2023-05-10T10:57:49;10.40;42.50
1021;DHT22;499;42.648;23.270;2023-05-10T11:00:25;10.30;44.70
1021;DHT22;499;42.648;23.270;2023-05-10T11:02:54;10.30;43.70
1021;DHT22;499;42.648;23.270;2023-05-10T11:05:36;10.40;44.60
1021;DHT22;499;42.648;23.270;2023-05-10T11:08:16;10.50;44.60
1021;DHT22;499;42.648;23.270;2023-05-10T11:10:51;10.60;42.20
1021;DHT22;499;42.648;23.270;2023-05-10T11:13:28;10.30;42.50
1021;DHT22;499;42.648;23.270;2023-05-10T11:15:56;10.50;44.00
1021;DHT22;499;42.648;23.270;2023-05-10T11:18:25;10.40;43.50
1021;DHT22;499;42.648;23.270;2023-05-10T11:20:56;10.40;43.60
1021;DHT22;499;42.648;23.270;2023-05-10T11:23:30;10.40;43.50
1021;DHT22;499;42.648;23.270;2023-05-10T11:25:57;10.50;41.00
1021;DHT22;499;42.648;23.270;2023-05-10T11:28:26;10.60;42.20
1021;DHT22;499;42.648;23.270;2023-05-10T11:30:53;10.60;40.50
1021;DHT22;499;42.648;23.270;2023-05-10T11:33:21;10.70;41.80
1021;DHT22;499;42.648;23.270;2023-05-10T11:35:48;10.60;41.00
1021;DHT22;499;42.648;23.270;2023-05-10T11:38:15;10.50;41.00
1021;DHT22;499;42.648;23.270;2023-05-10T11:40:43;10.40;41.70
1021;DHT22;499;42.648;23.270;2023-05-10T11:43:10;10.40;40.90
1021;DHT22;499;42.648;23.270;2023-05-10T11:45:39;10.50;40.90
1021;DHT22;499;42.648;23.270;2023-05-10T11:48:06;10.40;42.80
1021;DHT22;499;42.648;23.270;2023-05-10T11:50:34;10.40;43.50
1021;DHT22;499;42.648;23.270;2023-05-10T11:53:01;10.20;44.10
1021;DHT22;499;42.648;23.270;2023-05-10T11:55:28;10.20;42.40
1021;DHT22;499;42.648;23.270;2023-05-10T11:58:01;10.20;43.00
1021;DHT22;499;42.648;23.270;2023-05-10T12:00:29;10.20;44.30
1021;DHT22;499;42.648;23.270;2023-05-10T12:02:57;10.10;43.90
1021;DHT22;499;42.648;23.270;2023-05-10T12:05:24;10.00;45.10
1021;DHT22;499;42.648;23.270;2023-05-10T12:07:51;10.20;45.30
1021;DHT22;499;42.648;23.270;2023-05-10T12:10:25;10.20;43.30
1021;DHT22;499;42.648;23.270;2023-05-10T12:12:53;10.20;43.60
1021;DHT22;499;42.648;23.270;2023-05-10T12:15:22;10.40;44.80
1021;DHT22;499;42.648;23.270;2023-05-10T12:17:50;10.20;45.30
1021;DHT22;499;42.648;23.270;2023-05-10T12:20:19;10.30;45.10
1021;DHT22;499;42.648;23.270;2023-05-10T12:22:49;10.30;44.00
1021;DHT22;499;42.648;23.270;2023-05-10T12:25:16;10.40;45.50
1021;DHT22;499;42.648;23.270;2023-05-10T12:27:51;10.50;45.50
1021;DHT22;499;42.648;23.270;2023-05-10T12:30:24;10.50;42.90
1021;DHT22;499;42.648;23.270;2023-05-10T12:32:52;10.50;43.80
1021;DHT22;499;42.648;23.270;2023-05-10T12:35:19;10.40;45.20
1021;DHT22;499;42.648;23.270;2023-05-10T12:37:47;10.40;43.80
1021;DHT22;499;42.648;23.270;2023-05-10T12:40:15;10.50;45.30
1021;DHT22;499;42.648;23.270;2023-05-10T12:42:42;10.40;44.80
1021;DHT22;499;42.648;23.270;2023-05-10T12:45:11;10.40;44.30
1021;DHT22;499;42.648;23.270;2023-05-10T12:47:39;10.40;43.30
1021;DHT22;499;42.648;23.270;2023-05-10T12:50:07;10.40;45.50
1021;DHT22;499;42.648;23.270;2023-05-10T12:52:34;10.40;44.00
1021;DHT22;499;42.648;23.270;2023-05-10T12:55:01;10.40;43.90
1021;DHT22;499;42.648;23.270;2023-05-10T12:57:29;10.10;42.90
1021;DHT22;499;42.648;23.270;2023-05-10T12:59:56;10.20;45.30
1021;DHT22;499;42.648;23.270;2023-05-10T13:02:23;10.30;45.40
1021;DHT22;499;42.648;23.270;2023-05-10T13:04:52;10.10;45.20
1021;DHT22;499;42.648;23.270;2023-05-10T13:07:19;10.20;45.30
1021;DHT22;499;42.648;23.270;2023-05-10T13:09:46;10.30;44.50
1021;DHT22;499;42.648;23.270;2023-05-10T13:12:13;10.20;43.30
1021;DHT22;499;42.648;23.270;2023-05-10T13:14:41;10.20;43.10
1021;DHT22;499;42.648;23.270;2023-05-10T13:17:08;10.20;43.00
1021;DHT22;499;42.648;23.270;2023-05-10T13:19:35;10.10;44.30
1021;DHT22;499;42.648;23.270;2023-05-10T13:22:03;10.10;45.20
1021;DHT22;499;42.648;23.270;2023-05-10T13:24:30;10.20;45.30
1021;DHT22;499;42.648;23.270;2023-05-10T13:26:58;10.20;42.50
1021;DHT22;499;42.648;23.270;2023-05-10T13:29:25;10.20;45.80
1021;DHT22;499;42.648;23.270;2023-05-10T13:31:52;10.30;45.10
1021;DHT22;499;42.648;23.270;2023-05-10T13:34:19;10.10;44.60
1021;DHT22;499;42.648;23.270;2023-05-10T13:36:47;10.20;43.50
1021;DHT22;499;42.648;23.270;2023-05-10T13:39:16;10.30;43.80
1021;DHT22;499;42.648;23.270;2023-05-10T13:41:43;10.30;42.60
1021;DHT22;499;42.648;23.270;2023-05-10T13:44:12;10.30;42.40
1021;DHT22;499;42.648;23.270;2023-05-10T13:46:39;10.30;43.20
1021;DHT22;499;42.648;23.270;2023-05-10T13:49:06;10.30;43.70
1021;DHT22;499;42.648;23.270;2023-05-10T13:51:33;10.30;44.00
1021;DHT22;499;42.648;23.270;2023-05-10T13:54:01;10.40;42.70
1021;DHT22;499;42.648;23.270;2023-05-10T13:56:42;10.40;43.20
1021;DHT22;499;42.648;23.270;2023-05-10T13:59:09;10.40;44.20
1021;DHT22;499;42.648;23.270;2023-05-10T14:01:36;10.50;43.20
1021;DHT22;499;42.648;23.270;2023-05-10T14:04:03;10.40;41.90
1021;DHT22;499;42.648;23.270;2023-05-10T14:06:30;10.40;42.30
1021;DHT22;499;42.648;23.270;2023-05-10T14:08:57;10.30;42.00
1021;DHT22;499;42.648;23.270;2023-05-10T14:11:24;10.20;42.50
1021;DHT22;499;42.648;23.270;2023-05-10T14:13:53;10.30;42.90
1021;DHT22;499;42.648;23.270;2023-05-10T14:16:20;10.30;42.60
1021;DHT22;499;42.648;23.270;2023-05-10T14:18:47;10.20;42.10
1021;DHT22;499;42.648;23.270;2023-05-10T14:21:14;10.10;45.00
1021;DHT22;499;42.648;23.270;2023-05-10T14:23:41;10.30;44.70
1021;DHT22;499;42.648;23.270;2023-05-10T14:26:08;10.20;45.50
1021;DHT22;499;42.648;23.270;2023-05-10T14:28:35;10.30;44.50
1021;DHT22;499;42.648;23.270;2023-05-10T14:31:03;10.30;43.00
1021;DHT22;499;42.648;23.270;2023-05-10T14:33:31;10.30;44.10
1021;DHT22;499;42.648;23.270;2023-05-10T14:35:58;10.20;42.80
1021;DHT22;499;42.648;23.270;2023-05-10T14:38:25;10.20;44.60
1021;DHT22;499;42.648;23.270;2023-05-10T14:40:52;10.30;45.90
1021;DHT22;499;42.648;23.270;2023-05-10T14:43:20;10.40;45.50
1021;DHT22;499;42.648;23.270;2023-05-10T14:45:47;10.40;45.50
1021;DHT22;499;42.648;23.270;2023-05-10T14:48:15;10.40;43.60
1021;DHT22;499;42.648;23.270;2023-05-10T14:50:43;10.40;43.10
1021;DHT22;499;42.648;23.270;2023-05-10T14:53:37;10.40;44.90
1021;DHT22;499;42.648;23.270;2023-05-10T14:56:05;10.40;45.90
1021;DHT22;499;42.648;23.270;2023-05-10T14:58:32;10.40;47.30
1021;DHT22;499;42.648;23.270;2023-05-10T15:00:59;10.30;44.70
1021;DHT22;499;42.648;23.270;2023-05-10T15:03:28;10.40;45.10
1021;DHT22;499;42.648;23.270;2023-05-10T15:05:55;10.50;44.50
1021;DHT22;499;42.648;23.270;2023-05-10T15:08:23;10.50;42.90
1021;DHT22;499;42.648;23.270;2023-05-10T15:10:50;10.50;43.00
1021;DHT22;499;42.648;23.270;2023-05-10T15:13:17;10.40;43.60
1021;DHT22;499;42.648;23.270;2023-05-10T15:15:47;10.40;45.50
1021;DHT22;499;42.648;23.270;2023-05-10T15:18:14;10.30;44.20
1021;DHT22;499;42.648;23.270;2023-05-10T15:20:43;10.40;45.60
1021;DHT22;499;42.648;23.270;2023-05-10T15:23:10;10.40;42.90
1021;DHT22;499;42.648;23.270;2023-05-10T15:25:37;10.40;42.70
1021;DHT22;499;42.648;23.270;2023-05-10T15:28:05;10.30;42.50
1021;DHT22;499;42.648;23.270;2023-05-10T15:30:32;10.30;44.00
1021;DHT22;499;42.648;23.270;2023-05-10T15:32:59;10.30;42.70
1021;DHT22;499;42.648;23.270;2023-05-10T15:35:26;10.20;42.70
1021;DHT22;499;42.648;23.270;2023-05-10T15:37:54;10.30;43.00
1021;DHT22;499;42.648;23.270;2023-05-10T15:40:21;10.20;43.60
1021;DHT22;499;42.648;23.270;2023-05-10T15:42:48;10.30;42.90
1021;DHT22;499;42.648;23.270;2023-05-10T15:45:15;10.30;43.90
1021;DHT22;499;42.648;23.270;2023-05-10T15:47:42;10.40;43.20
1021;DHT22;499;42.648;23.270;2023-05-10T15:50:10;10.30;43.30
1021;DHT22;499;42.648;23.270;2023-05-10T15:52:38;10.20;43.90
1021;DHT22;499;42.648;23.270;2023-05-10T15:55:07;10.30;42.90
1021;DHT22;499;42.648;23.270;2023-05-10T15:57:37;10.30;42.70
1021;DHT22;499;42.648;23.270;2023-05-10T16:00:06;10.30;41.90
1021;DHT22;499;42.648;23.270;2023-05-10T16:02:33;10.40;42.50
1021;DHT22;499;42.648;23.270;2023-05-10T16:05:00;10.40;42.90
1021;DHT22;499;42.648;23.270;2023-05-10T16:07:27;10.40;41.90
1021;DHT22;499;42.648;23.270;2023-05-10T16:09:54;10.40;42.00
1021;DHT22;499;42.648;23.270;2023-05-10T16:12:23;10.30;40.90
1021;DHT22;499;42.648;23.270;2023-05-10T16:14:50;10.30;41.10
1021;DHT22;499;42.648;23.270;2023-05-10T16:17:17;10.40;41.00
1021;DHT22;499;42.648;23.270;2023-05-10T16:19:44;10.30;42.20
1021;DHT22;499;42.648;23.270;2023-05-10T16:22:12;10.30;42.40